Higgins Bay, New York
Current Conditions -  °F | °C
As of 9:15 AM on Sunday 25 Jan 2015 (Local Time) from KNY0 Reporting Station
Scattered Clouds Scattered Clouds  
Wind Chill:   Ceiling: Unl
Heat Index: 20°   Visibility: 10mi
Dew Point:   Wind: 17mph
Humidity: 60%   Direction: 300°WNW
Pressure: 29.69"   Gusts: 24mph
Location:  43.5523°N, 74.4387°W
Report Text: KNY0 251415Z AUTO 30015G21KT 10SM SCT026 M06/M13 A2969 RMK AO2 T10651132
Loading
Personal Weather Stations






























Interactive Weather Map New forecast layout! Learn more

10-Day Weather Forecast

Advertisements
Track Severe Weather on mobile